createdAt,value
2022-07-25T00:48:22.557Z,2.67
2022-07-25T00:50:49.210Z,2.05
2022-07-25T00:53:15.905Z,1.42
2022-07-25T00:55:42.819Z,3.70
2022-07-25T00:58:09.406Z,2.78
2022-07-25T01:00:35.953Z,2.50
2022-07-25T01:03:02.630Z,2.33
2022-07-25T01:05:29.242Z,3.08
2022-07-25T01:07:55.975Z,1.48
2022-07-25T01:10:22.485Z,1.58
2022-07-25T01:12:50.412Z,1.40
2022-07-25T01:15:18.122Z,4.22
2022-07-25T01:17:44.795Z,1.45
2022-07-25T01:20:13.861Z,1.42
2022-07-25T01:22:40.398Z,1.60
2022-07-25T01:25:07.026Z,1.25
2022-07-25T01:27:33.614Z,2.75
2022-07-25T01:30:00.177Z,1.70
2022-07-25T01:32:26.757Z,0.80
2022-07-25T01:34:53.287Z,1.52
2022-07-25T01:37:19.859Z,4.20
2022-07-25T01:39:46.408Z,0.98
2022-07-25T01:42:13.193Z,0.73
2022-07-25T01:44:39.720Z,1.73
2022-07-25T01:47:06.252Z,0.55
2022-07-25T01:49:33.188Z,1.45
2022-07-25T01:52:00.478Z,0.85
2022-07-25T01:54:28.401Z,1.15
2022-07-25T01:56:54.946Z,1.05
2022-07-25T01:59:21.538Z,1.00
2022-07-25T02:01:48.115Z,0.45
2022-07-25T02:04:14.770Z,1.27
2022-07-25T02:06:44.092Z,0.82
2022-07-25T02:09:10.772Z,1.38
2022-07-25T02:11:37.304Z,1.60
2022-07-25T02:14:04.634Z,1.92
2022-07-25T02:16:31.480Z,0.55
2022-07-25T02:18:58.400Z,1.55
2022-07-25T02:21:25.145Z,1.52
2022-07-25T02:23:51.691Z,2.35
2022-07-25T02:26:18.322Z,1.00
2022-07-25T02:28:44.944Z,0.82
2022-07-25T02:31:11.699Z,1.08
2022-07-25T02:33:38.252Z,1.98
2022-07-25T02:36:05.101Z,2.30
2022-07-25T02:38:31.655Z,0.70
2022-07-25T02:40:58.260Z,2.05
2022-07-25T02:43:24.828Z,0.70
2022-07-25T02:45:51.830Z,1.88
2022-07-25T02:48:18.590Z,1.70
2022-07-25T02:50:45.145Z,0.80
2022-07-25T02:53:11.689Z,2.15
2022-07-25T02:55:38.248Z,1.13
2022-07-25T02:58:04.777Z,3.83
2022-07-25T03:00:31.405Z,1.27
2022-07-25T03:02:58.476Z,1.20
2022-07-25T03:05:25.113Z,0.57
2022-07-25T03:07:52.793Z,1.05
2022-07-25T03:10:19.374Z,0.85
2022-07-25T03:12:46.155Z,1.70
2022-07-25T03:15:13.054Z,0.60
2022-07-25T03:17:39.669Z,1.20
2022-07-25T03:20:07.074Z,0.90
2022-07-25T03:22:33.650Z,1.95
2022-07-25T03:25:00.171Z,1.13
2022-07-25T03:27:26.881Z,0.60
2022-07-25T03:29:54.586Z,1.17
2022-07-25T03:32:21.169Z,0.75
2022-07-25T03:34:47.882Z,0.95
2022-07-25T03:37:14.459Z,1.95
2022-07-25T03:39:41.005Z,1.65
2022-07-25T03:42:07.593Z,4.82
2022-07-25T03:44:34.177Z,0.68
2022-07-25T03:47:00.673Z,3.42
2022-07-25T03:49:27.210Z,1.95
2022-07-25T03:51:53.811Z,0.75
2022-07-25T03:54:20.332Z,1.98
2022-07-25T03:56:48.197Z,0.80
2022-07-25T03:59:16.461Z,3.47
2022-07-25T04:01:43.464Z,0.73
2022-07-25T04:04:10.483Z,1.92
2022-07-25T04:06:37.439Z,0.90
2022-07-25T04:09:04.355Z,0.50
2022-07-25T04:11:31.225Z,2.25
2022-07-25T04:13:58.090Z,0.35
2022-07-25T04:16:25.119Z,0.45
2022-07-25T04:18:54.589Z,1.15
2022-07-25T04:21:23.180Z,0.35
2022-07-25T04:23:50.073Z,0.50
2022-07-25T04:26:16.841Z,0.88
2022-07-25T04:28:43.377Z,0.45
2022-07-25T04:31:09.918Z,0.30
2022-07-25T04:33:37.272Z,1.55
2022-07-25T04:36:04.091Z,0.70
2022-07-25T04:38:30.695Z,1.85
2022-07-25T04:40:57.220Z,0.35
2022-07-25T04:43:23.736Z,0.40
2022-07-25T04:45:50.385Z,2.03
2022-07-25T04:48:17.032Z,0.90
2022-07-25T04:50:43.600Z,0.75
2022-07-25T04:53:10.146Z,2.28
2022-07-25T04:55:38.867Z,2.15
2022-07-25T04:58:06.048Z,0.77
2022-07-25T05:00:32.903Z,0.43
2022-07-25T05:02:59.918Z,1.92
2022-07-25T05:05:26.839Z,1.70
2022-07-25T05:07:57.492Z,4.13
2022-07-25T05:10:24.338Z,2.05
2022-07-25T05:12:51.008Z,2.15
2022-07-25T05:15:17.586Z,1.25
2022-07-25T05:17:44.168Z,0.70
2022-07-25T05:20:11.103Z,2.85
2022-07-25T05:22:37.927Z,0.60
2022-07-25T05:25:07.926Z,0.60
2022-07-25T05:27:34.481Z,2.45
2022-07-25T05:30:01.033Z,1.92
2022-07-25T05:32:27.568Z,1.73
2022-07-25T05:34:54.137Z,1.55
2022-07-25T05:37:20.663Z,0.90
2022-07-25T05:39:47.194Z,0.40
2022-07-25T05:42:14.253Z,1.05
2022-07-25T05:44:40.812Z,0.45
2022-07-25T05:47:11.109Z,0.80
2022-07-25T05:49:37.966Z,1.02
2022-07-25T05:52:07.309Z,0.35
2022-07-25T05:54:37.622Z,0.30
2022-07-25T05:57:04.195Z,1.02
2022-07-25T05:59:30.735Z,0.35
2022-07-25T06:01:57.454Z,1.00
2022-07-25T06:04:27.164Z,0.70
2022-07-25T06:06:53.962Z,2.28
2022-07-25T06:09:21.793Z,1.02
2022-07-25T06:11:54.346Z,0.73
2022-07-25T06:14:26.697Z,0.40
2022-07-25T06:16:53.515Z,0.35
2022-07-25T06:19:20.156Z,0.20
2022-07-25T06:21:46.693Z,0.82
2022-07-25T06:24:13.210Z,2.30
2022-07-25T06:26:39.763Z,1.95
2022-07-25T06:29:06.301Z,0.55
2022-07-25T06:31:32.909Z,0.52
2022-07-25T06:33:59.537Z,2.13
2022-07-25T06:36:32.382Z,1.55
2022-07-25T06:38:59.469Z,1.00
2022-07-25T06:41:25.966Z,0.60
2022-07-25T06:43:52.492Z,1.30
2022-07-25T06:46:19.112Z,1.17
2022-07-25T06:48:45.750Z,0.82
2022-07-25T06:51:12.397Z,0.65
2022-07-25T06:53:38.943Z,1.55
2022-07-25T06:56:05.827Z,1.02
2022-07-25T06:58:32.334Z,0.73
2022-07-25T07:01:01.316Z,1.35
2022-07-25T07:03:28.140Z,0.60
2022-07-25T07:05:55.059Z,0.93
2022-07-25T07:08:21.597Z,1.85
2022-07-25T07:10:48.096Z,0.50
2022-07-25T07:13:15.338Z,0.80
2022-07-25T07:15:50.251Z,1.63
2022-07-25T07:18:17.389Z,1.52
2022-07-25T07:20:44.205Z,3.13
2022-07-25T07:23:11.161Z,0.80
2022-07-25T07:25:43.404Z,0.60
2022-07-25T07:28:09.942Z,0.68
2022-07-25T07:31:05.676Z,0.77
2022-07-25T07:33:23.115Z,1.15
2022-07-25T07:35:49.612Z,1.17
2022-07-25T07:38:16.600Z,0.38
2022-07-25T07:40:43.099Z,0.30
2022-07-25T07:43:09.611Z,0.30
2022-07-25T07:45:36.185Z,0.40
2022-07-25T07:48:04.139Z,1.42
2022-07-25T07:50:30.772Z,1.02
2022-07-25T07:52:58.282Z,1.45
2022-07-25T07:55:43.840Z,1.90
2022-07-25T07:58:11.452Z,1.15
2022-07-25T08:00:39.516Z,1.02
2022-07-25T08:03:07.598Z,0.82
2022-07-25T08:05:36.453Z,0.68
2022-07-25T08:08:04.318Z,0.50
2022-07-25T08:10:31.784Z,1.27
2022-07-25T08:12:59.099Z,0.50
2022-07-25T08:15:25.766Z,0.55
2022-07-25T08:17:58.187Z,1.02
2022-07-25T08:20:40.169Z,0.63
2022-07-25T08:23:07.052Z,0.40
2022-07-25T08:25:33.737Z,0.43
2022-07-25T08:28:00.299Z,0.47
2022-07-25T08:30:27.090Z,1.30
2022-07-25T08:32:58.044Z,0.80
2022-07-25T08:35:25.180Z,0.73
2022-07-25T08:37:52.204Z,3.05
2022-07-25T08:40:20.277Z,0.47
2022-07-25T08:42:46.883Z,0.43
2022-07-25T08:45:14.484Z,0.68
2022-07-25T08:47:41.119Z,1.55
2022-07-25T08:50:09.182Z,0.10
2022-07-25T08:52:37.241Z,0.10
2022-07-25T08:55:05.163Z,0.10
2022-07-25T08:57:31.791Z,0.95
2022-07-25T08:59:59.193Z,0.93
2022-07-25T09:02:29.383Z,0.30
2022-07-25T09:04:57.859Z,1.50
2022-07-25T09:07:34.656Z,0.55
2022-07-25T09:10:15.634Z,0.35
2022-07-25T09:12:42.671Z,0.40
2022-07-25T09:15:09.562Z,0.65
2022-07-25T09:17:38.098Z,0.50
2022-07-25T09:20:08.821Z,0.20
2022-07-25T09:22:43.370Z,0.70
2022-07-25T09:25:19.997Z,1.35
2022-07-25T09:27:46.808Z,1.60
2022-07-25T09:30:14.496Z,0.98
2022-07-25T09:32:41.171Z,0.63
2022-07-25T09:35:07.820Z,1.27
2022-07-25T09:37:34.351Z,5.43
2022-07-25T09:40:00.869Z,0.30
2022-07-25T09:42:28.185Z,1.05
2022-07-25T09:45:12.565Z,0.50
2022-07-25T09:50:06.207Z,0.30
2022-07-25T09:52:33.923Z,2.35
2022-07-25T09:55:02.024Z,1.88
2022-07-25T09:57:28.590Z,0.57
2022-07-25T09:59:56.163Z,2.90
2022-07-25T10:02:25.787Z,1.30
2022-07-25T10:04:52.292Z,0.25
2022-07-25T10:07:20.656Z,0.95
2022-07-25T10:09:51.456Z,1.48
2022-07-25T10:12:21.984Z,1.40
2022-07-25T10:15:24.103Z,0.45
2022-07-25T15:19:56.283Z,6.72
2022-07-25T15:22:22.861Z,12.63
2022-07-25T15:27:38.482Z,10.68
2022-07-25T15:30:05.960Z,8.30
2022-07-25T15:32:32.534Z,9.30
2022-07-25T15:34:59.512Z,8.07
2022-07-25T15:37:26.042Z,10.85
2022-07-25T15:39:52.613Z,10.55
2022-07-25T15:42:19.160Z,6.15
2022-07-25T15:44:45.903Z,6.80
2022-07-25T15:47:12.540Z,12.73
2022-07-25T15:49:39.173Z,8.82
2022-07-25T15:52:05.876Z,9.98
2022-07-25T15:54:32.531Z,6.43
2022-07-25T15:56:59.167Z,11.73
2022-07-25T15:59:25.783Z,10.30
2022-07-25T16:01:52.395Z,6.45
2022-07-25T16:04:19.512Z,10.10
2022-07-25T16:06:46.106Z,7.93
2022-07-25T16:09:14.310Z,15.77
2022-07-25T16:11:40.856Z,10.07
2022-07-25T16:14:08.945Z,8.85
2022-07-25T16:16:36.114Z,8.27
2022-07-25T23:20:07.764Z,3.25
2022-07-25T23:22:34.256Z,1.98
2022-07-25T23:25:00.989Z,4.30
2022-07-25T23:27:27.568Z,1.10
2022-07-25T23:29:54.079Z,1.83
2022-07-25T23:32:20.614Z,3.47
2022-07-25T23:34:47.171Z,1.90
2022-07-25T23:37:13.674Z,1.98
2022-07-25T23:39:40.190Z,1.92
2022-07-25T23:42:06.827Z,3.15
2022-07-25T23:44:33.403Z,0.95
2022-07-25T23:47:03.437Z,1.45
2022-07-25T23:49:31.511Z,3.13
2022-07-25T23:51:58.078Z,3.95
2022-07-25T23:54:25.171Z,1.00
2022-07-25T23:56:52.151Z,2.88
2022-07-25T23:59:18.910Z,1.08
